Terminal Aerodrome Forecast
Issued by NWS Cleveland, OH

Home | Current Version | Previous Version | Graphics & Text | Print | Product List | Glossary On
Versions: 1 2 3 4 5 6 7 8 9 10 11 12 13 14 15 16 17 18 19 20 21 22 23 24 25 26 27 28 29
000
FTUS41 KCLE 191739 AAE
TAFTOL
TAF AMD
KTOL 191739Z 1918/2018 13004KT P6SM VCSH SCT005 OVC025
      TEMPO 1918/1922 3SM -TSRA BKN005CB OVC015
     FM200000 VRB03KT P6SM SCT025 BKN070
     FM200700 00000KT 5SM BR SCT025 BKN040
      TEMPO 2010/2014 1/2SM FG BKN002
     FM201400 21005KT P6SM BKN025=

USA.gov is the U.S. government's official web portal to all federal, state and local government web resources and services.